createdAt,value
2022-12-04T00:01:08.269Z,74.17
2022-12-04T00:03:35.218Z,76.70
2022-12-04T00:06:10.246Z,72.37
2022-12-04T00:08:37.122Z,74.47
2022-12-04T00:11:05.150Z,74.10
2022-12-04T00:13:32.576Z,73.13
2022-12-04T00:15:59.491Z,69.27
2022-12-04T00:18:26.681Z,71.67
2022-12-04T00:20:53.655Z,76.30
2022-12-04T00:23:20.410Z,79.50
2022-12-04T00:25:48.872Z,74.97
2022-12-04T00:28:16.856Z,68.37
2022-12-04T00:30:44.252Z,77.53
2022-12-04T00:33:14.210Z,81.70
2022-12-04T00:35:41.142Z,68.27
2022-12-04T00:38:07.932Z,80.57
2022-12-04T00:40:34.718Z,77.20
2022-12-04T00:43:01.589Z,80.17
2022-12-04T00:45:28.421Z,74.37
2022-12-04T00:47:55.303Z,69.60
2022-12-04T00:50:22.294Z,72.30
2022-12-04T00:52:49.095Z,76.27
2022-12-04T00:55:15.911Z,71.00
2022-12-04T00:57:42.670Z,75.87
2022-12-04T01:00:09.728Z,71.27
2022-12-04T01:02:36.603Z,65.67
2022-12-04T01:05:03.548Z,68.03
2022-12-04T01:07:30.390Z,79.33
2022-12-04T01:09:57.543Z,71.50
2022-12-04T01:12:24.640Z,76.23
2022-12-04T01:14:51.401Z,70.90
2022-12-04T01:17:18.703Z,71.90
2022-12-04T01:19:45.583Z,71.83
2022-12-04T01:22:12.370Z,70.63
2022-12-04T01:24:39.180Z,68.20
2022-12-04T01:27:05.957Z,59.77
2022-12-04T01:29:32.786Z,67.90
2022-12-04T01:31:59.614Z,73.53
2022-12-04T01:34:26.523Z,69.80
2022-12-04T01:36:53.314Z,75.13
2022-12-04T01:39:20.148Z,76.53
2022-12-04T01:41:47.003Z,75.10
2022-12-04T01:44:18.841Z,63.97
2022-12-04T01:46:56.435Z,74.20
2022-12-04T01:49:46.500Z,77.30
2022-12-04T01:52:23.763Z,69.97
2022-12-04T01:54:54.110Z,71.83
2022-12-04T01:57:22.303Z,67.97
2022-12-04T01:59:50.494Z,76.35
2022-12-04T02:02:19.481Z,69.83
2022-12-04T02:04:46.385Z,71.50
2022-12-04T02:07:13.282Z,66.70
2022-12-04T02:09:40.312Z,73.87
2022-12-04T02:12:21.290Z,65.30
2022-12-04T02:15:27.898Z,60.37
2022-12-04T02:18:12.745Z,68.83
2022-12-04T02:20:59.170Z,64.03
2022-12-04T02:23:42.625Z,67.73
2022-12-04T02:26:36.654Z,64.40
2022-12-04T02:29:17.031Z,63.20
2022-12-04T02:31:52.652Z,62.73
2022-12-04T02:34:47.915Z,63.90
2022-12-04T02:37:20.041Z,65.83
2022-12-04T02:39:59.780Z,67.73
2022-12-04T02:42:41.850Z,69.70
2022-12-04T02:45:13.792Z,79.40
2022-12-04T02:47:41.849Z,73.50
2022-12-04T02:50:16.794Z,77.10
2022-12-04T02:52:53.236Z,78.93
2022-12-04T02:55:23.400Z,73.27
2022-12-04T02:57:51.286Z,72.97
2022-12-04T03:00:18.599Z,74.27
2022-12-04T03:02:59.569Z,75.53
2022-12-04T03:05:34.778Z,70.10
2022-12-04T03:08:04.860Z,81.80
2022-12-04T03:10:36.744Z,72.80
2022-12-04T03:13:09.501Z,74.53
2022-12-04T03:15:44.926Z,75.57
2022-12-04T03:18:29.264Z,72.33
2022-12-04T03:21:04.293Z,76.80
2022-12-04T03:23:34.691Z,72.37
2022-12-04T03:26:15.157Z,73.93
2022-12-04T03:29:05.173Z,74.77
2022-12-04T03:31:43.121Z,80.30
2022-12-04T03:34:09.898Z,82.67
2022-12-04T03:36:37.983Z,84.00
2022-12-04T03:39:36.639Z,73.27
2022-12-04T03:42:16.971Z,83.27
2022-12-04T03:44:49.469Z,78.10
2022-12-04T03:47:21.187Z,93.67
2022-12-04T03:50:00.252Z,79.97
2022-12-04T03:52:53.362Z,85.60
2022-12-04T03:55:29.388Z,83.37
2022-12-04T03:58:00.117Z,79.43
2022-12-04T04:00:26.902Z,86.73
2022-12-04T04:03:00.332Z,86.93
2022-12-04T04:05:27.661Z,85.73
2022-12-04T04:08:21.445Z,81.80
2022-12-04T04:10:49.170Z,88.77
2022-12-04T04:13:37.740Z,86.27
2022-12-04T04:16:23.840Z,86.87
2022-12-04T04:19:10.204Z,88.17
2022-12-04T04:21:56.009Z,83.33
2022-12-04T04:24:31.209Z,87.07
2022-12-04T04:26:58.481Z,86.07
2022-12-04T04:29:25.261Z,85.10
2022-12-04T04:31:57.844Z,86.03
2022-12-04T04:34:33.593Z,79.63
2022-12-04T04:37:09.277Z,82.37
2022-12-04T04:40:06.701Z,89.93
2022-12-04T04:42:41.826Z,82.03
2022-12-04T04:45:21.649Z,80.83
2022-12-04T04:47:54.777Z,76.57
2022-12-04T04:50:21.654Z,79.33
2022-12-04T04:52:51.072Z,83.90
2022-12-04T04:55:18.076Z,79.00
2022-12-04T04:57:44.911Z,83.56
2022-12-04T05:01:12.173Z,74.95
2022-12-04T05:04:21.031Z,90.72
2022-12-04T05:06:53.880Z,77.57
2022-12-04T05:09:23.325Z,83.68
2022-12-04T05:11:53.734Z,85.67
2022-12-04T05:14:22.656Z,82.63
2022-12-04T05:16:49.447Z,80.93
2022-12-04T05:19:34.759Z,81.93
2022-12-04T05:22:14.543Z,82.01
2022-12-04T05:24:41.344Z,87.53
2022-12-04T05:27:08.160Z,84.50
2022-12-04T05:29:36.108Z,71.30
2022-12-04T05:35:12.287Z,76.65
2022-12-04T05:41:30.746Z,68.80
2022-12-04T05:57:01.710Z,68.25
2022-12-04T06:06:22.558Z,87.66
2022-12-04T06:08:50.673Z,91.47
2022-12-04T06:14:04.540Z,64.53
2022-12-04T06:16:43.246Z,78.80
2022-12-04T06:19:17.501Z,75.75
2022-12-04T06:29:42.769Z,90.98
2022-12-04T06:32:09.651Z,92.33
2022-12-04T06:34:44.485Z,88.89
2022-12-04T06:37:11.304Z,83.17
2022-12-04T06:39:38.070Z,91.43
2022-12-04T06:42:04.946Z,88.70
2022-12-04T06:44:31.777Z,88.43
2022-12-04T06:47:00.987Z,85.87
2022-12-04T06:49:28.125Z,89.33
2022-12-04T06:51:54.916Z,79.73
2022-12-04T06:54:21.681Z,90.53
2022-12-04T07:14:44.393Z,63.35
2022-12-04T07:17:27.562Z,80.60
2022-12-04T07:27:31.101Z,76.53
2022-12-04T07:30:30.814Z,84.18
2022-12-04T07:58:59.439Z,72.03
2022-12-04T08:13:58.930Z,73.05
2022-12-04T08:17:02.906Z,87.68
2022-12-04T08:26:51.877Z,80.43
2022-12-04T08:47:17.945Z,73.35
2022-12-04T08:49:44.709Z,78.90
2022-12-04T09:01:13.893Z,72.67
2022-12-04T09:05:02.729Z,79.50
2022-12-04T09:30:13.592Z,67.50
2022-12-04T09:36:32.114Z,72.93
2022-12-04T09:39:22.401Z,70.05
2022-12-04T09:42:39.366Z,76.59
2022-12-04T09:45:16.437Z,85.53
2022-12-04T09:48:50.274Z,87.09
2022-12-04T10:00:21.410Z,69.00
2022-12-04T10:03:24.954Z,69.65
2022-12-04T10:16:10.207Z,84.47
2022-12-04T10:18:57.572Z,77.07
2022-12-04T10:21:48.386Z,77.61
2022-12-04T10:30:40.081Z,94.32
2022-12-04T10:38:54.072Z,69.85
2022-12-04T10:41:54.738Z,84.70
2022-12-04T10:50:12.802Z,80.20
2022-12-04T11:01:16.353Z,83.01
2022-12-04T11:04:07.761Z,73.77
2022-12-04T11:06:40.653Z,67.35
2022-12-04T11:09:22.825Z,80.26
2022-12-04T11:13:30.858Z,64.72
2022-12-04T11:16:01.128Z,76.43
2022-12-04T11:44:57.072Z,71.80
2022-12-04T11:51:06.798Z,61.95
2022-12-04T11:57:27.014Z,73.22
2022-12-04T12:02:32.462Z,66.47
2022-12-04T12:05:08.105Z,76.07
2022-12-04T12:12:53.893Z,70.57
2022-12-04T12:17:37.811Z,64.07
2022-12-04T12:20:37.493Z,66.20
2022-12-04T12:36:08.490Z,58.05
2022-12-04T12:40:38.115Z,50.60
2022-12-04T12:44:27.173Z,51.35
2022-12-04T12:47:01.514Z,61.40
2022-12-04T12:50:14.351Z,47.33
2022-12-04T12:52:54.746Z,43.33
2022-12-04T12:56:01.250Z,34.13
2022-12-04T13:09:17.384Z,37.38
2022-12-04T13:11:44.839Z,39.75
2022-12-04T13:14:16.457Z,34.92
2022-12-04T13:17:04.483Z,41.13
2022-12-04T13:19:34.391Z,44.50
2022-12-04T13:23:58.242Z,41.60
2022-12-04T13:27:25.623Z,41.92
2022-12-04T13:33:01.990Z,40.25
2022-12-04T13:35:28.738Z,48.17
2022-12-04T13:43:36.297Z,35.60
2022-12-04T13:48:32.374Z,43.40
2022-12-04T13:55:36.640Z,33.38
2022-12-04T13:58:11.053Z,28.20
2022-12-04T14:00:45.761Z,38.97
2022-12-04T14:08:29.690Z,41.84
2022-12-04T14:15:20.118Z,37.05
2022-12-04T14:22:51.696Z,34.33
2022-12-04T14:29:21.247Z,44.76
2022-12-04T14:35:22.475Z,39.83
2022-12-04T14:46:22.420Z,39.08
2022-12-04T14:54:09.519Z,49.97
2022-12-04T14:57:05.957Z,35.61
2022-12-04T15:10:01.552Z,56.93
2022-12-04T15:23:02.283Z,52.97
2022-12-04T15:26:21.513Z,41.10
2022-12-04T15:29:17.892Z,48.30
2022-12-04T15:32:00.861Z,46.73
2022-12-04T15:37:32.627Z,51.13
2022-12-04T15:40:08.365Z,49.80
2022-12-04T15:42:37.354Z,49.23
2022-12-04T15:45:26.998Z,50.00
2022-12-04T15:48:01.500Z,49.00
2022-12-04T15:50:40.450Z,58.10
2022-12-04T15:53:18.020Z,56.20
2022-12-04T15:55:59.310Z,56.80
2022-12-04T16:27:15.089Z,56.42
2022-12-04T16:29:45.522Z,50.06
2022-12-04T16:32:39.596Z,51.60
2022-12-04T16:35:20.643Z,63.65
2022-12-04T16:37:52.770Z,61.50
2022-12-04T16:40:22.235Z,61.36
2022-12-04T16:42:55.160Z,65.08
2022-12-04T16:48:53.535Z,54.65
2022-12-04T16:51:25.796Z,55.90
2022-12-04T16:56:36.475Z,55.03
2022-12-04T16:59:11.741Z,59.47
2022-12-04T17:01:45.141Z,56.02
2022-12-04T17:04:12.989Z,54.33
2022-12-04T17:06:49.026Z,48.19
2022-12-04T17:09:23.341Z,50.75
2022-12-04T17:14:40.950Z,53.60
2022-12-04T17:17:07.760Z,42.20
2022-12-04T17:20:17.717Z,48.73
2022-12-04T17:25:50.473Z,64.28
2022-12-04T17:28:34.286Z,42.08
2022-12-04T17:43:43.045Z,49.45
2022-12-04T17:46:21.796Z,47.83
2022-12-04T17:48:55.222Z,46.33
2022-12-04T17:54:53.310Z,34.75
2022-12-04T18:03:01.216Z,41.33
2022-12-04T18:20:10.583Z,41.35
2022-12-04T18:25:07.431Z,43.35
2022-12-04T18:43:10.533Z,42.75
2022-12-04T18:46:13.568Z,49.78
2022-12-04T18:55:14.577Z,44.45
2022-12-04T19:01:13.946Z,32.38
2022-12-04T19:07:32.520Z,38.30
2022-12-04T19:25:40.142Z,35.47
2022-12-04T19:32:10.859Z,32.25
2022-12-04T19:50:38.199Z,35.42
2022-12-04T19:56:56.702Z,41.83
2022-12-04T20:27:03.283Z,37.25
2022-12-04T20:33:23.077Z,35.20
2022-12-04T20:49:26.111Z,35.67
2022-12-04T20:53:24.668Z,39.53
2022-12-04T21:10:36.838Z,42.28
2022-12-04T21:16:55.318Z,35.55
2022-12-04T21:35:14.543Z,42.50
2022-12-04T21:41:51.781Z,48.72
2022-12-04T21:59:59.304Z,45.17
2022-12-04T22:06:19.167Z,51.35
2022-12-04T22:24:53.849Z,58.45
2022-12-04T22:31:16.849Z,49.15
2022-12-04T22:49:35.273Z,47.05
2022-12-04T22:55:53.833Z,51.10
2022-12-04T23:14:02.506Z,69.15
2022-12-04T23:20:20.956Z,51.95
2022-12-04T23:38:42.020Z,43.78
2022-12-04T23:43:59.634Z,48.90
2022-12-04T23:50:23.069Z,45.95
